createdAt,value
2018-06-14T00:00:52.382Z,99.90
2018-06-14T00:03:21.504Z,99.90
2018-06-14T00:05:50.844Z,99.90
2018-06-14T00:08:19.986Z,99.90
2018-06-14T00:10:49.270Z,99.90
2018-06-14T00:13:23.131Z,99.90
2018-06-14T00:15:52.323Z,99.90
2018-06-14T00:18:21.412Z,99.90
2018-06-14T00:20:50.566Z,99.90
2018-06-14T00:23:19.654Z,99.90
2018-06-14T00:25:48.707Z,99.90
2018-06-14T00:28:17.811Z,99.90
2018-06-14T00:30:47.023Z,99.90
2018-06-14T00:33:16.159Z,99.90
2018-06-14T00:35:45.338Z,99.90
2018-06-14T00:38:14.422Z,99.90
2018-06-14T00:40:43.519Z,99.90
2018-06-14T00:43:12.605Z,99.90
2018-06-14T00:45:41.745Z,99.90
2018-06-14T00:48:10.827Z,99.90
2018-06-14T00:50:39.903Z,99.90
2018-06-14T00:53:08.999Z,99.90
2018-06-14T00:55:38.098Z,99.90
2018-06-14T00:58:07.167Z,99.90
2018-06-14T01:00:36.286Z,99.90
2018-06-14T01:03:05.470Z,99.90
2018-06-14T01:05:35.246Z,99.90
2018-06-14T01:08:06.868Z,99.90
2018-06-14T01:10:35.942Z,99.90
2018-06-14T01:13:04.590Z,99.90
2018-06-14T01:15:36.286Z,99.90
2018-06-14T01:18:05.521Z,99.90
2018-06-14T01:20:34.646Z,99.90
2018-06-14T01:23:03.880Z,99.90
2018-06-14T01:25:32.998Z,99.90
2018-06-14T01:28:02.078Z,99.90
2018-06-14T01:30:31.235Z,99.90
2018-06-14T01:33:00.324Z,99.90
2018-06-14T01:35:29.406Z,99.90
2018-06-14T01:38:15.486Z,99.90
2018-06-14T01:40:45.414Z,99.90
2018-06-14T01:43:14.527Z,99.90
2018-06-14T01:45:43.651Z,99.90
2018-06-14T01:48:12.823Z,99.90
2018-06-14T01:50:41.979Z,99.90
2018-06-14T01:53:11.135Z,99.90
2018-06-14T01:55:40.203Z,99.90
2018-06-14T01:58:09.302Z,99.90
2018-06-14T02:00:38.423Z,99.90
2018-06-14T02:03:07.490Z,99.90
2018-06-14T02:05:36.577Z,99.90
2018-06-14T02:08:05.719Z,99.90
2018-06-14T02:10:34.787Z,99.90
2018-06-14T02:13:03.401Z,99.90
2018-06-14T02:15:33.781Z,99.90
2018-06-14T02:18:02.938Z,99.90
2018-06-14T02:23:01.066Z,99.90
2018-06-14T02:25:30.166Z,99.90
2018-06-14T02:27:59.253Z,99.90
2018-06-14T02:30:28.379Z,99.90
2018-06-14T02:32:57.507Z,99.90
2018-06-14T02:35:26.599Z,99.90
2018-06-14T02:37:56.715Z,99.90
2018-06-14T02:40:25.790Z,99.90
2018-06-14T02:42:54.887Z,99.90
2018-06-14T02:45:24.034Z,99.90
2018-06-14T02:50:22.669Z,99.90
2018-06-14T02:52:51.862Z,99.90
2018-06-14T02:55:21.475Z,99.90
2018-06-14T02:57:50.617Z,99.90
2018-06-14T03:00:20.678Z,99.90
2018-06-14T03:02:49.980Z,99.90
2018-06-14T03:05:19.137Z,99.90
2018-06-14T03:07:48.298Z,99.90
2018-06-14T03:10:17.890Z,99.90
2018-06-14T03:12:47.003Z,99.90
2018-06-14T03:15:16.368Z,99.90
2018-06-14T03:17:45.441Z,99.90
2018-06-14T03:20:14.543Z,99.90
2018-06-14T03:22:43.657Z,99.90
2018-06-14T03:25:12.762Z,99.90
2018-06-14T03:27:41.918Z,99.90
2018-06-14T03:30:11.051Z,99.90
2018-06-14T03:32:40.127Z,99.90
2018-06-14T03:35:09.234Z,99.90
2018-06-14T03:37:38.351Z,99.90
2018-06-14T03:40:07.423Z,99.90
2018-06-14T03:42:41.830Z,99.90
2018-06-14T03:45:16.522Z,99.90
2018-06-14T03:47:48.881Z,99.90
2018-06-14T03:50:17.970Z,99.90
2018-06-14T03:52:47.886Z,99.90
2018-06-14T03:55:16.991Z,99.90
2018-06-14T03:57:46.087Z,99.90
2018-06-14T04:00:15.168Z,99.90
2018-06-14T04:02:44.275Z,99.90
2018-06-14T04:05:13.355Z,99.90
2018-06-14T04:07:42.436Z,99.90
2018-06-14T04:10:11.640Z,99.90
2018-06-14T04:12:41.278Z,99.90
2018-06-14T04:15:10.610Z,99.90
2018-06-14T04:17:39.692Z,99.90
2018-06-14T04:20:09.654Z,99.90
2018-06-14T04:22:38.819Z,99.90
2018-06-14T04:25:08.459Z,99.90
2018-06-14T04:27:37.583Z,99.90
2018-06-14T04:30:06.727Z,99.90
2018-06-14T04:32:36.455Z,99.90
2018-06-14T04:35:05.819Z,99.90
2018-06-14T04:37:34.904Z,99.90
2018-06-14T04:40:03.998Z,99.90
2018-06-14T04:42:33.119Z,99.90
2018-06-14T04:45:02.367Z,99.90
2018-06-14T04:47:31.490Z,99.90
2018-06-14T04:50:00.579Z,99.90
2018-06-14T04:52:29.694Z,99.90
2018-06-14T04:55:01.041Z,99.90
2018-06-14T04:57:31.155Z,99.90
2018-06-14T05:00:00.323Z,99.90
2018-06-14T05:02:29.463Z,99.90
2018-06-14T05:04:58.914Z,99.90
2018-06-14T05:07:28.151Z,99.90
2018-06-14T05:09:57.259Z,99.90
2018-06-14T05:12:26.418Z,99.90
2018-06-14T05:14:56.175Z,99.90
2018-06-14T05:17:24.927Z,99.90
2018-06-14T05:19:54.524Z,99.90
2018-06-14T05:22:23.627Z,99.90
2018-06-14T05:24:53.479Z,99.90
2018-06-14T05:27:22.570Z,99.90
2018-06-14T05:29:51.686Z,99.90
2018-06-14T05:32:20.774Z,99.90
2018-06-14T05:34:49.878Z,99.90
2018-06-14T05:37:19.019Z,99.90
2018-06-14T05:39:48.111Z,99.90
2018-06-14T05:42:17.257Z,99.90
2018-06-14T05:44:46.344Z,99.90
2018-06-14T05:47:15.467Z,99.90
2018-06-14T05:49:44.538Z,99.90
2018-06-14T05:52:15.178Z,99.90
2018-06-14T05:54:44.977Z,99.90
2018-06-14T05:57:14.650Z,99.90
2018-06-14T05:59:43.899Z,99.90
2018-06-14T06:02:13.094Z,99.90
2018-06-14T06:04:42.239Z,99.90
2018-06-14T06:07:13.896Z,99.90
2018-06-14T06:09:42.974Z,99.90
2018-06-14T06:12:12.757Z,99.90
2018-06-14T06:14:41.951Z,99.90
2018-06-14T06:17:11.376Z,99.90
2018-06-14T06:19:40.780Z,99.90
2018-06-14T06:22:10.007Z,99.90
2018-06-14T06:24:39.255Z,99.90
2018-06-14T06:27:08.529Z,99.90
2018-06-14T06:29:37.355Z,99.90
2018-06-14T06:32:06.539Z,99.90
2018-06-14T06:34:35.667Z,99.90
2018-06-14T06:37:04.785Z,99.90
2018-06-14T06:39:33.819Z,99.90
2018-06-14T06:42:02.926Z,99.90
2018-06-14T06:44:32.028Z,99.90
2018-06-14T06:47:01.164Z,99.90
2018-06-14T06:49:30.266Z,99.90
2018-06-14T06:51:59.386Z,99.90
2018-06-14T06:54:28.535Z,99.90
2018-06-14T06:56:57.625Z,99.90
2018-06-14T06:59:26.708Z,99.90
2018-06-14T07:01:55.849Z,99.90
2018-06-14T07:04:24.949Z,99.90
2018-06-14T07:06:53.618Z,99.90
2018-06-14T07:09:22.778Z,99.90
2018-06-14T07:11:51.889Z,99.90
2018-06-14T07:14:20.978Z,99.90
2018-06-14T07:16:50.259Z,99.90
2018-06-14T07:19:19.332Z,99.90
2018-06-14T07:21:48.484Z,99.90
2018-06-14T07:24:17.860Z,99.90
2018-06-14T07:26:46.951Z,99.90
2018-06-14T07:29:15.618Z,99.20
2018-06-14T07:31:44.714Z,96.60
2018-06-14T07:34:13.797Z,96.60
2018-06-14T07:36:49.088Z,96.10
2018-06-14T07:39:18.171Z,93.60
2018-06-14T07:41:47.463Z,92.60
2018-06-14T07:44:16.635Z,91.10
2018-06-14T07:46:45.728Z,90.00
2018-06-14T07:49:14.812Z,89.40
2018-06-14T07:51:43.922Z,83.40
2018-06-14T07:54:16.248Z,84.60
2018-06-14T07:56:45.318Z,83.10
2018-06-14T07:59:14.387Z,81.90
2018-06-14T08:01:43.622Z,83.70
2018-06-14T08:04:13.538Z,84.40
2018-06-14T08:06:42.759Z,85.80
2018-06-14T08:09:13.435Z,86.50
2018-06-14T08:11:42.111Z,87.00
2018-06-14T08:14:11.227Z,88.90
2018-06-14T08:16:40.306Z,94.10
2018-06-14T08:19:11.221Z,90.70
2018-06-14T08:21:39.947Z,91.00
2018-06-14T08:24:09.455Z,90.90
2018-06-14T08:26:38.770Z,87.30
2018-06-14T08:29:08.583Z,85.70
2018-06-14T08:31:41.015Z,85.00
2018-06-14T08:34:10.550Z,84.70
2018-06-14T08:36:40.157Z,84.60
2018-06-14T08:39:09.891Z,82.10
2018-06-14T08:41:39.335Z,83.10
2018-06-14T08:44:09.743Z,81.10
2018-06-14T08:46:39.975Z,80.90
2018-06-14T08:49:09.396Z,82.30
2018-06-14T08:51:38.862Z,79.40
2018-06-14T08:54:08.134Z,78.10
2018-06-14T08:56:37.327Z,75.80
2018-06-14T08:59:06.981Z,73.70
2018-06-14T09:01:36.930Z,72.70
2018-06-14T09:04:07.154Z,71.20
2018-06-14T09:06:36.266Z,69.80
2018-06-14T09:09:08.522Z,68.70
2018-06-14T09:11:38.452Z,71.00
2018-06-14T09:14:09.165Z,68.40
2018-06-14T09:19:07.819Z,68.60
2018-06-14T09:21:37.020Z,66.50
2018-06-14T09:24:06.178Z,67.00
2018-06-14T09:26:35.290Z,66.60
2018-06-14T09:29:04.552Z,66.10
2018-06-14T09:31:33.674Z,63.50
2018-06-14T09:34:02.763Z,66.00
2018-06-14T09:36:33.176Z,65.00
2018-06-14T09:39:02.309Z,63.40
2018-06-14T09:41:31.396Z,64.00
2018-06-14T09:44:00.506Z,64.20
2018-06-14T09:46:29.601Z,60.70
2018-06-14T09:49:04.481Z,59.00
2018-06-14T09:51:33.567Z,58.90
2018-06-14T09:54:03.275Z,57.20
2018-06-14T09:59:02.130Z,56.00
2018-06-14T10:01:31.239Z,58.00
2018-06-14T10:04:00.330Z,57.30
2018-06-14T10:06:29.407Z,55.60
2018-06-14T10:08:58.703Z,54.60
2018-06-14T10:11:27.970Z,56.60
2018-06-14T10:13:57.292Z,58.10
2018-06-14T10:16:26.429Z,58.90
2018-06-14T10:18:56.185Z,56.90
2018-06-14T10:21:25.913Z,56.90
2018-06-14T10:23:55.090Z,54.90
2018-06-14T10:26:24.631Z,52.90
2018-06-14T10:28:53.790Z,52.80
2018-06-14T10:31:22.962Z,51.70
2018-06-14T10:33:52.070Z,51.50
2018-06-14T10:36:21.180Z,51.50
2018-06-14T10:38:51.206Z,50.50
2018-06-14T10:41:20.846Z,49.00
2018-06-14T10:43:49.946Z,46.90
2018-06-14T10:46:19.080Z,51.80
2018-06-14T10:48:48.243Z,54.70
2018-06-14T10:51:17.683Z,55.00
2018-06-14T10:53:46.877Z,54.60
2018-06-14T10:56:16.255Z,57.30
2018-06-14T10:58:45.869Z,58.90
2018-06-14T11:01:15.031Z,57.20
2018-06-14T11:03:44.115Z,58.70
2018-06-14T11:06:13.247Z,59.00
2018-06-14T11:08:42.350Z,60.30
2018-06-14T11:11:12.396Z,63.40
2018-06-14T11:13:41.234Z,59.40
2018-06-14T11:16:10.344Z,57.10
2018-06-14T11:18:39.428Z,57.50
2018-06-14T11:21:09.279Z,56.80
2018-06-14T11:23:38.437Z,53.30
2018-06-14T11:26:07.582Z,48.40
2018-06-14T11:28:37.022Z,46.60
2018-06-14T11:31:06.460Z,45.30
2018-06-14T11:33:35.570Z,48.20
2018-06-14T11:36:05.286Z,52.10
2018-06-14T11:38:34.656Z,54.30
2018-06-14T11:41:03.879Z,53.60
2018-06-14T11:43:33.200Z,53.90
2018-06-14T11:46:02.820Z,51.80
2018-06-14T11:48:31.946Z,50.00
2018-06-14T11:51:01.283Z,46.10
2018-06-14T11:53:30.685Z,47.30
2018-06-14T11:56:00.119Z,44.00
2018-06-14T11:58:29.310Z,43.30
2018-06-14T12:00:59.007Z,45.70
2018-06-14T12:03:28.320Z,43.90
2018-06-14T12:05:59.287Z,43.10
2018-06-14T12:08:29.437Z,45.50
2018-06-14T12:13:27.468Z,50.50
2018-06-14T12:15:57.159Z,51.50
2018-06-14T12:18:26.422Z,49.90
2018-06-14T12:20:56.077Z,51.70
2018-06-14T12:23:25.694Z,52.00
2018-06-14T12:25:57.035Z,52.60
2018-06-14T12:28:26.416Z,52.80
2018-06-14T12:30:55.582Z,50.40
2018-06-14T12:33:24.816Z,52.40
2018-06-14T12:35:54.239Z,49.30
2018-06-14T12:38:23.516Z,50.60
2018-06-14T12:40:53.537Z,49.90
2018-06-14T12:43:23.486Z,46.80
2018-06-14T12:45:52.585Z,45.70
2018-06-14T12:48:22.223Z,45.90
2018-06-14T12:50:51.458Z,46.00
2018-06-14T12:53:20.430Z,43.40
2018-06-14T12:55:50.609Z,38.50
2018-06-14T12:58:20.885Z,40.60
2018-06-14T13:00:50.339Z,39.70
2018-06-14T13:03:20.711Z,41.80
2018-06-14T13:05:50.063Z,40.70
2018-06-14T13:08:19.715Z,37.80
2018-06-14T13:10:49.497Z,40.20
2018-06-14T13:13:18.794Z,44.30
2018-06-14T13:15:48.249Z,43.70
2018-06-14T13:18:17.311Z,43.30
2018-06-14T13:20:46.407Z,45.10
2018-06-14T13:23:15.527Z,46.10
2018-06-14T13:25:44.606Z,45.30
2018-06-14T13:28:13.702Z,45.50
2018-06-14T13:30:43.379Z,44.50
2018-06-14T13:33:12.006Z,44.30
2018-06-14T13:35:42.082Z,42.80
2018-06-14T13:40:41.071Z,44.70
2018-06-14T13:43:10.198Z,45.10
2018-06-14T13:48:09.751Z,44.20
2018-06-14T13:50:39.222Z,41.80
2018-06-14T13:53:08.390Z,38.70
2018-06-14T13:55:37.473Z,41.40
2018-06-14T13:58:06.580Z,42.30
2018-06-14T14:00:35.971Z,43.30
2018-06-14T14:03:07.538Z,42.90
2018-06-14T14:05:36.937Z,42.80
2018-06-14T14:08:08.099Z,41.90
2018-06-14T14:10:37.376Z,43.20
2018-06-14T14:13:07.115Z,42.80
2018-06-14T14:15:36.423Z,43.50
2018-06-14T14:18:06.021Z,46.90
2018-06-14T14:20:35.390Z,44.80
2018-06-14T14:23:06.235Z,44.10
2018-06-14T14:25:35.479Z,43.40
2018-06-14T14:28:04.569Z,42.50
2018-06-14T14:30:33.754Z,44.10
2018-06-14T14:33:03.044Z,46.20
2018-06-14T14:35:32.128Z,46.00
2018-06-14T14:38:01.164Z,44.00
2018-06-14T14:42:59.169Z,45.70
2018-06-14T14:45:28.274Z,43.60
2018-06-14T14:47:57.404Z,44.30
2018-06-14T14:50:26.530Z,46.10
2018-06-14T14:52:55.679Z,45.00
2018-06-14T14:55:24.767Z,44.50
2018-06-14T14:57:53.920Z,47.10
2018-06-14T15:00:23.142Z,46.40
2018-06-14T15:02:52.234Z,47.40
2018-06-14T15:05:21.321Z,46.10
2018-06-14T15:07:50.513Z,45.70
2018-06-14T15:10:19.571Z,45.20
2018-06-14T15:12:48.667Z,45.00
2018-06-14T15:15:18.626Z,44.80
2018-06-14T15:17:47.597Z,44.40
2018-06-14T15:20:17.551Z,44.30
2018-06-14T15:22:47.520Z,43.00
2018-06-14T15:25:16.695Z,42.00
2018-06-14T15:27:46.606Z,44.60
2018-06-14T15:30:16.470Z,40.90
2018-06-14T15:32:46.766Z,42.10
2018-06-14T15:35:16.519Z,45.90
2018-06-14T15:40:16.447Z,45.40
2018-06-14T15:42:46.199Z,44.80
2018-06-14T15:45:15.480Z,44.60
2018-06-14T15:47:45.405Z,45.00
2018-06-14T15:50:15.388Z,45.50
2018-06-14T15:55:31.259Z,45.90
2018-06-14T15:58:00.684Z,49.10
2018-06-14T16:00:30.361Z,48.70
2018-06-14T16:02:59.631Z,48.40
2018-06-14T16:05:28.898Z,48.00
2018-06-14T16:07:59.944Z,47.20
2018-06-14T16:10:29.256Z,46.40
2018-06-14T16:12:58.603Z,46.80
2018-06-14T16:15:27.863Z,46.80
2018-06-14T16:20:25.651Z,50.20
2018-06-14T16:22:55.079Z,51.20
2018-06-14T16:25:24.339Z,51.70
2018-06-14T16:27:54.991Z,52.10
2018-06-14T16:30:23.810Z,52.40
2018-06-14T16:32:52.938Z,53.40
2018-06-14T16:35:22.051Z,53.00
2018-06-14T16:37:51.149Z,53.40
2018-06-14T16:40:19.997Z,55.90
2018-06-14T16:42:49.399Z,52.90
2018-06-14T16:45:18.430Z,52.90
2018-06-14T16:47:47.714Z,52.90
2018-06-14T16:50:17.471Z,54.20
2018-06-14T16:52:47.560Z,53.80
2018-06-14T16:55:16.734Z,52.60
2018-06-14T16:57:46.218Z,54.50
2018-06-14T17:00:15.638Z,56.30
2018-06-14T17:02:44.798Z,56.40
2018-06-14T17:05:14.989Z,56.40
2018-06-14T17:07:44.217Z,58.10
2018-06-14T17:10:13.454Z,56.10
2018-06-14T17:12:42.914Z,55.60
2018-06-14T17:15:12.091Z,55.70
2018-06-14T17:17:41.195Z,57.00
2018-06-14T17:20:10.336Z,56.50
2018-06-14T17:22:39.487Z,56.20
2018-06-14T17:25:09.849Z,57.30
2018-06-14T17:27:39.043Z,59.00
2018-06-14T17:30:08.386Z,58.60
2018-06-14T17:32:38.402Z,58.80
2018-06-14T17:35:08.035Z,58.80
2018-06-14T17:37:37.138Z,57.40
2018-06-14T17:40:06.314Z,57.20
2018-06-14T17:42:35.614Z,58.40
2018-06-14T17:45:05.390Z,58.40
2018-06-14T17:47:34.487Z,59.00
2018-06-14T17:50:03.995Z,59.30
2018-06-14T17:52:33.091Z,60.30
2018-06-14T17:55:00.953Z,61.00
2018-06-14T17:57:31.336Z,61.20
2018-06-14T17:59:59.606Z,61.30
2018-06-14T18:02:28.773Z,61.90
2018-06-14T18:04:58.976Z,63.70
2018-06-14T18:07:28.115Z,64.80
2018-06-14T18:09:57.215Z,66.10
2018-06-14T18:12:26.311Z,66.00
2018-06-14T18:14:56.114Z,67.30
2018-06-14T18:17:25.308Z,68.20
2018-06-14T18:19:54.507Z,68.60
2018-06-14T18:22:42.204Z,70.00
2018-06-14T18:25:13.368Z,70.90
2018-06-14T18:27:42.914Z,70.30
2018-06-14T18:30:12.199Z,71.00
2018-06-14T18:32:43.697Z,72.30
2018-06-14T18:35:19.178Z,75.10
2018-06-14T18:37:50.547Z,75.20
2018-06-14T18:40:20.306Z,75.90
2018-06-14T18:42:49.950Z,76.60
2018-06-14T18:45:19.785Z,77.50
2018-06-14T18:47:49.978Z,78.70
2018-06-14T18:50:19.214Z,79.10
2018-06-14T18:52:48.554Z,80.60
2018-06-14T18:55:18.018Z,80.80
2018-06-14T19:00:16.822Z,84.40
2018-06-14T19:02:45.914Z,85.40
2018-06-14T19:05:15.063Z,86.00
2018-06-14T19:07:43.875Z,87.70
2018-06-14T19:10:12.986Z,88.20
2018-06-14T19:12:42.333Z,89.90
2018-06-14T19:15:11.523Z,91.30
2018-06-14T19:17:41.013Z,92.40
2018-06-14T19:20:10.464Z,93.50
2018-06-14T19:22:40.801Z,93.30
2018-06-14T19:25:10.792Z,93.50
2018-06-14T19:27:40.447Z,93.20
2018-06-14T19:30:09.371Z,93.20
2018-06-14T19:32:39.298Z,94.30
2018-06-14T19:35:08.607Z,94.80
2018-06-14T19:37:38.426Z,95.00
2018-06-14T19:40:09.013Z,95.90
2018-06-14T19:42:38.248Z,96.70
2018-06-14T19:45:07.599Z,97.00
2018-06-14T19:47:37.538Z,97.30
2018-06-14T19:50:08.197Z,97.70
2018-06-14T19:52:37.386Z,98.10
2018-06-14T19:55:07.067Z,98.80
2018-06-14T20:00:05.606Z,99.90
2018-06-14T20:02:35.454Z,99.90
2018-06-14T20:05:05.596Z,99.90
2018-06-14T20:07:35.626Z,99.90
2018-06-14T20:10:05.050Z,99.90
2018-06-14T20:12:35.319Z,99.90
2018-06-14T20:15:05.131Z,99.90
2018-06-14T20:17:33.983Z,99.90
2018-06-14T20:20:03.589Z,99.90
2018-06-14T20:22:32.748Z,99.90
2018-06-14T20:25:05.630Z,99.90
2018-06-14T20:27:35.143Z,99.90
2018-06-14T20:32:33.996Z,99.90
2018-06-14T20:35:03.343Z,99.90
2018-06-14T20:40:01.730Z,99.90
2018-06-14T20:42:30.835Z,99.90
2018-06-14T20:45:00.292Z,99.90
2018-06-14T20:47:29.422Z,99.90
2018-06-14T20:49:58.567Z,99.90
2018-06-14T20:52:27.710Z,99.90
2018-06-14T20:54:56.786Z,99.90
2018-06-14T20:57:26.511Z,99.90
2018-06-14T20:59:55.648Z,99.90
2018-06-14T21:02:24.943Z,99.90
2018-06-14T21:04:54.063Z,99.90
2018-06-14T21:07:23.927Z,99.90
2018-06-14T21:09:59.399Z,99.90
2018-06-14T21:12:28.799Z,99.90
2018-06-14T21:14:58.186Z,99.90
2018-06-14T21:17:27.286Z,99.90
2018-06-14T21:19:56.935Z,99.90
2018-06-14T21:22:26.907Z,99.90
2018-06-14T21:24:56.767Z,99.90
2018-06-14T21:27:25.927Z,99.90
2018-06-14T21:29:56.500Z,99.90
2018-06-14T21:32:26.338Z,99.90
2018-06-14T21:34:55.159Z,99.90
2018-06-14T21:37:24.623Z,99.90
2018-06-14T21:39:56.277Z,99.90
2018-06-14T21:42:26.785Z,99.90
2018-06-14T21:44:56.031Z,99.90
2018-06-14T21:47:25.027Z,99.90
2018-06-14T21:49:53.909Z,99.90
2018-06-14T21:52:23.002Z,99.90
2018-06-14T21:54:52.138Z,99.90
2018-06-14T21:57:21.241Z,99.90
2018-06-14T21:59:50.335Z,99.90
2018-06-14T22:02:20.759Z,99.90
2018-06-14T22:04:50.543Z,99.90
2018-06-14T22:07:19.852Z,99.90
2018-06-14T22:09:49.023Z,99.90
2018-06-14T22:12:18.755Z,99.90
2018-06-14T22:14:47.899Z,99.90
2018-06-14T22:17:18.307Z,99.90
2018-06-14T22:19:47.408Z,99.90
2018-06-14T22:22:16.687Z,99.90
2018-06-14T22:24:45.814Z,99.90
2018-06-14T22:27:14.911Z,99.90
2018-06-14T22:29:44.258Z,99.90
2018-06-14T22:32:13.503Z,99.90
2018-06-14T22:34:59.487Z,99.90
2018-06-14T22:37:28.578Z,99.90
2018-06-14T22:39:58.065Z,99.90
2018-06-14T22:42:27.188Z,99.90
2018-06-14T22:44:56.292Z,99.90
2018-06-14T22:47:25.371Z,99.90
2018-06-14T22:49:54.536Z,99.90
2018-06-14T22:53:01.496Z,99.90
2018-06-14T22:55:31.038Z,99.90
2018-06-14T22:58:00.405Z,99.90
2018-06-14T23:01:53.918Z,99.90
2018-06-14T23:04:28.282Z,99.90
2018-06-14T23:06:57.386Z,99.90
2018-06-14T23:10:44.116Z,99.90
2018-06-14T23:13:19.660Z,99.90
2018-06-14T23:15:48.891Z,99.90
2018-06-14T23:18:18.089Z,99.90
2018-06-14T23:20:48.230Z,99.90
2018-06-14T23:23:17.418Z,99.90
2018-06-14T23:25:46.740Z,99.90
2018-06-14T23:28:16.102Z,99.90
2018-06-14T23:30:45.421Z,99.90
2018-06-14T23:33:14.681Z,99.90
2018-06-14T23:35:43.899Z,99.90
2018-06-14T23:38:13.314Z,99.90
2018-06-14T23:40:42.998Z,99.90
2018-06-14T23:43:12.208Z,99.90
2018-06-14T23:45:41.316Z,99.90
2018-06-14T23:48:10.371Z,99.90
2018-06-14T23:50:41.498Z,99.90
2018-06-14T23:53:11.498Z,99.90
2018-06-14T23:55:41.078Z,99.90
2018-06-14T23:58:12.086Z,99.90
